sensor_id;sensor_type;location;lat;lon;timestamp;temperature;humidity
13203;DHT22;6666;51.626;7.530;2023-05-07T00:02:17;13.80;99.90
13203;DHT22;6666;51.626;7.530;2023-05-07T00:04:46;13.80;99.90
13203;DHT22;6666;51.626;7.530;2023-05-07T00:07:15;13.80;99.90
13203;DHT22;6666;51.626;7.530;2023-05-07T00:09:43;13.80;99.90
13203;DHT22;6666;51.626;7.530;2023-05-07T00:12:11;13.80;99.90
13203;DHT22;6666;51.626;7.530;2023-05-07T00:14:40;13.80;99.90
13203;DHT22;6666;51.626;7.530;2023-05-07T00:17:08;13.80;99.90
13203;DHT22;6666;51.626;7.530;2023-05-07T00:19:37;13.80;99.90
13203;DHT22;6666;51.626;7.530;2023-05-07T00:22:07;13.90;99.90
13203;DHT22;6666;51.626;7.530;2023-05-07T00:24:36;13.80;99.90
13203;DHT22;6666;51.626;7.530;2023-05-07T00:27:04;13.90;99.90
13203;DHT22;6666;51.626;7.530;2023-05-07T00:29:32;13.90;99.90
13203;DHT22;6666;51.626;7.530;2023-05-07T00:32:00;13.90;99.90
13203;DHT22;6666;51.626;7.530;2023-05-07T00:34:28;13.80;99.90
13203;DHT22;6666;51.626;7.530;2023-05-07T00:36:56;13.80;99.90
13203;DHT22;6666;51.626;7.530;2023-05-07T00:39:26;13.90;99.90
13203;DHT22;6666;51.626;7.530;2023-05-07T00:41:54;13.80;99.90
13203;DHT22;6666;51.626;7.530;2023-05-07T00:44:22;13.70;99.90
13203;DHT22;6666;51.626;7.530;2023-05-07T00:46:50;13.70;99.90
13203;DHT22;6666;51.626;7.530;2023-05-07T00:49:19;13.80;99.90
13203;DHT22;6666;51.626;7.530;2023-05-07T00:51:47;13.80;99.90
13203;DHT22;6666;51.626;7.530;2023-05-07T00:54:15;13.90;99.90
13203;DHT22;6666;51.626;7.530;2023-05-07T00:56:45;13.90;99.90
13203;DHT22;6666;51.626;7.530;2023-05-07T00:59:14;13.80;99.90
13203;DHT22;6666;51.626;7.530;2023-05-07T01:01:43;13.90;99.90
13203;DHT22;6666;51.626;7.530;2023-05-07T01:04:11;13.80;99.90
13203;DHT22;6666;51.626;7.530;2023-05-07T01:06:40;13.80;99.90
13203;DHT22;6666;51.626;7.530;2023-05-07T01:09:09;13.70;99.90
13203;DHT22;6666;51.626;7.530;2023-05-07T01:11:38;13.80;99.90
13203;DHT22;6666;51.626;7.530;2023-05-07T01:14:09;13.70;99.90
13203;DHT22;6666;51.626;7.530;2023-05-07T01:16:37;13.70;99.90
13203;DHT22;6666;51.626;7.530;2023-05-07T01:19:05;13.70;99.90
13203;DHT22;6666;51.626;7.530;2023-05-07T01:21:36;13.70;99.90
13203;DHT22;6666;51.626;7.530;2023-05-07T01:24:08;13.70;99.90
13203;DHT22;6666;51.626;7.530;2023-05-07T01:26:38;13.70;99.90
13203;DHT22;6666;51.626;7.530;2023-05-07T01:29:06;13.70;99.90
13203;DHT22;6666;51.626;7.530;2023-05-07T01:31:35;13.70;99.90
13203;DHT22;6666;51.626;7.530;2023-05-07T01:34:05;13.70;99.90
13203;DHT22;6666;51.626;7.530;2023-05-07T01:36:37;13.60;99.90
13203;DHT22;6666;51.626;7.530;2023-05-07T01:39:08;13.70;99.90
13203;DHT22;6666;51.626;7.530;2023-05-07T01:41:36;13.70;99.90
13203;DHT22;6666;51.626;7.530;2023-05-07T01:44:05;13.70;99.90
13203;DHT22;6666;51.626;7.530;2023-05-07T01:46:34;13.70;99.90
13203;DHT22;6666;51.626;7.530;2023-05-07T01:49:03;13.60;99.90
13203;DHT22;6666;51.626;7.530;2023-05-07T01:51:32;13.60;99.90
13203;DHT22;6666;51.626;7.530;2023-05-07T01:54:01;13.60;99.90
13203;DHT22;6666;51.626;7.530;2023-05-07T01:56:31;13.50;99.90
13203;DHT22;6666;51.626;7.530;2023-05-07T01:58:59;13.60;99.90
13203;DHT22;6666;51.626;7.530;2023-05-07T02:01:28;13.60;99.90
13203;DHT22;6666;51.626;7.530;2023-05-07T02:03:56;13.50;99.90
13203;DHT22;6666;51.626;7.530;2023-05-07T02:06:27;13.50;99.90
13203;DHT22;6666;51.626;7.530;2023-05-07T02:09:01;13.50;99.90
13203;DHT22;6666;51.626;7.530;2023-05-07T02:11:31;13.50;99.90
13203;DHT22;6666;51.626;7.530;2023-05-07T02:13:59;13.60;99.90
13203;DHT22;6666;51.626;7.530;2023-05-07T02:16:28;13.60;99.90
13203;DHT22;6666;51.626;7.530;2023-05-07T02:18:56;13.60;99.90
13203;DHT22;6666;51.626;7.530;2023-05-07T02:21:25;13.60;99.90
13203;DHT22;6666;51.626;7.530;2023-05-07T02:23:56;13.60;99.90
13203;DHT22;6666;51.626;7.530;2023-05-07T02:26:25;13.60;99.90
13203;DHT22;6666;51.626;7.530;2023-05-07T02:28:54;13.50;99.90
13203;DHT22;6666;51.626;7.530;2023-05-07T02:31:23;13.50;99.90
13203;DHT22;6666;51.626;7.530;2023-05-07T02:33:51;13.40;99.90
13203;DHT22;6666;51.626;7.530;2023-05-07T02:36:19;13.40;99.90
13203;DHT22;6666;51.626;7.530;2023-05-07T02:38:54;13.40;99.90
13203;DHT22;6666;51.626;7.530;2023-05-07T02:41:22;13.40;99.90
13203;DHT22;6666;51.626;7.530;2023-05-07T02:43:50;13.40;99.90
13203;DHT22;6666;51.626;7.530;2023-05-07T02:46:20;13.50;99.90
13203;DHT22;6666;51.626;7.530;2023-05-07T02:48:56;13.50;99.90
13203;DHT22;6666;51.626;7.530;2023-05-07T02:51:25;13.40;99.90
13203;DHT22;6666;51.626;7.530;2023-05-07T02:53:56;13.40;99.90
13203;DHT22;6666;51.626;7.530;2023-05-07T02:56:26;13.40;99.90
13203;DHT22;6666;51.626;7.530;2023-05-07T02:58:54;13.40;99.90
13203;DHT22;6666;51.626;7.530;2023-05-07T03:01:27;13.40;99.90
13203;DHT22;6666;51.626;7.530;2023-05-07T03:04:00;13.40;99.90
13203;DHT22;6666;51.626;7.530;2023-05-07T03:06:29;13.40;99.90
13203;DHT22;6666;51.626;7.530;2023-05-07T03:08:57;13.40;99.90
13203;DHT22;6666;51.626;7.530;2023-05-07T03:11:25;13.40;99.90
13203;DHT22;6666;51.626;7.530;2023-05-07T03:13:53;13.40;99.90
13203;DHT22;6666;51.626;7.530;2023-05-07T03:16:22;13.40;99.90
13203;DHT22;6666;51.626;7.530;2023-05-07T03:18:52;13.40;99.90
13203;DHT22;6666;51.626;7.530;2023-05-07T03:21:20;13.40;99.90
13203;DHT22;6666;51.626;7.530;2023-05-07T03:23:49;13.40;99.90
13203;DHT22;6666;51.626;7.530;2023-05-07T03:26:17;13.40;99.90
13203;DHT22;6666;51.626;7.530;2023-05-07T03:28:45;13.40;99.90
13203;DHT22;6666;51.626;7.530;2023-05-07T03:31:16;13.40;99.90
13203;DHT22;6666;51.626;7.530;2023-05-07T03:33:53;13.40;99.90
13203;DHT22;6666;51.626;7.530;2023-05-07T03:36:22;13.30;99.90
13203;DHT22;6666;51.626;7.530;2023-05-07T03:38:51;13.30;99.90
13203;DHT22;6666;51.626;7.530;2023-05-07T03:41:22;13.30;99.90
13203;DHT22;6666;51.626;7.530;2023-05-07T03:43:50;13.30;99.90
13203;DHT22;6666;51.626;7.530;2023-05-07T03:46:18;13.40;99.90
13203;DHT22;6666;51.626;7.530;2023-05-07T03:48:47;13.40;99.90
13203;DHT22;6666;51.626;7.530;2023-05-07T03:51:18;13.40;99.90
13203;DHT22;6666;51.626;7.530;2023-05-07T03:53:46;13.40;99.90
13203;DHT22;6666;51.626;7.530;2023-05-07T03:56:14;13.30;99.90
13203;DHT22;6666;51.626;7.530;2023-05-07T03:58:45;13.40;99.90
13203;DHT22;6666;51.626;7.530;2023-05-07T04:01:13;13.40;99.90
13203;DHT22;6666;51.626;7.530;2023-05-07T04:03:42;13.40;99.90
13203;DHT22;6666;51.626;7.530;2023-05-07T04:06:10;13.40;99.90
13203;DHT22;6666;51.626;7.530;2023-05-07T04:08:43;13.40;99.90
13203;DHT22;6666;51.626;7.530;2023-05-07T04:11:13;13.30;99.90
13203;DHT22;6666;51.626;7.530;2023-05-07T04:13:41;13.40;99.90
13203;DHT22;6666;51.626;7.530;2023-05-07T04:16:09;13.30;99.90
13203;DHT22;6666;51.626;7.530;2023-05-07T04:18:38;13.30;99.90
13203;DHT22;6666;51.626;7.530;2023-05-07T04:21:06;13.30;99.90
13203;DHT22;6666;51.626;7.530;2023-05-07T04:23:41;13.30;99.90
13203;DHT22;6666;51.626;7.530;2023-05-07T04:26:12;13.40;99.90
13203;DHT22;6666;51.626;7.530;2023-05-07T04:28:43;13.30;99.90
13203;DHT22;6666;51.626;7.530;2023-05-07T04:31:11;13.40;99.90
13203;DHT22;6666;51.626;7.530;2023-05-07T04:33:40;13.40;99.90
13203;DHT22;6666;51.626;7.530;2023-05-07T04:36:11;13.40;99.90
13203;DHT22;6666;51.626;7.530;2023-05-07T04:38:48;13.30;99.90
13203;DHT22;6666;51.626;7.530;2023-05-07T04:41:19;13.40;99.90
13203;DHT22;6666;51.626;7.530;2023-05-07T04:43:49;13.50;99.90
13203;DHT22;6666;51.626;7.530;2023-05-07T04:46:21;13.50;99.90
13203;DHT22;6666;51.626;7.530;2023-05-07T04:48:49;13.50;99.90
13203;DHT22;6666;51.626;7.530;2023-05-07T04:51:17;13.50;99.90
13203;DHT22;6666;51.626;7.530;2023-05-07T04:53:45;13.60;99.90
13203;DHT22;6666;51.626;7.530;2023-05-07T04:56:13;13.70;99.90
13203;DHT22;6666;51.626;7.530;2023-05-07T04:58:45;13.70;99.90
13203;DHT22;6666;51.626;7.530;2023-05-07T05:01:15;13.70;99.90
13203;DHT22;6666;51.626;7.530;2023-05-07T05:03:44;13.80;99.90
13203;DHT22;6666;51.626;7.530;2023-05-07T05:06:12;13.90;99.90
13203;DHT22;6666;51.626;7.530;2023-05-07T05:08:40;14.00;99.90
13203;DHT22;6666;51.626;7.530;2023-05-07T05:11:09;14.10;99.90
13203;DHT22;6666;51.626;7.530;2023-05-07T05:13:38;14.30;99.90
13203;DHT22;6666;51.626;7.530;2023-05-07T05:16:12;14.60;99.90
13203;DHT22;6666;51.626;7.530;2023-05-07T05:18:41;15.30;99.90
13203;DHT22;6666;51.626;7.530;2023-05-07T05:21:11;16.10;99.90
13203;DHT22;6666;51.626;7.530;2023-05-07T05:23:41;17.50;99.90
13203;DHT22;6666;51.626;7.530;2023-05-07T05:26:10;17.70;99.90
13203;DHT22;6666;51.626;7.530;2023-05-07T05:28:38;17.00;99.90
13203;DHT22;6666;51.626;7.530;2023-05-07T05:31:08;16.40;99.90
13203;DHT22;6666;51.626;7.530;2023-05-07T05:33:37;16.50;99.90
13203;DHT22;6666;51.626;7.530;2023-05-07T05:36:07;16.30;99.90
13203;DHT22;6666;51.626;7.530;2023-05-07T05:38:37;16.00;99.90
13203;DHT22;6666;51.626;7.530;2023-05-07T05:41:07;16.40;99.90
13203;DHT22;6666;51.626;7.530;2023-05-07T05:43:36;16.40;99.90
13203;DHT22;6666;51.626;7.530;2023-05-07T05:46:04;16.30;99.90
13203;DHT22;6666;51.626;7.530;2023-05-07T05:48:33;16.00;99.90
13203;DHT22;6666;51.626;7.530;2023-05-07T05:51:05;15.80;99.90
13203;DHT22;6666;51.626;7.530;2023-05-07T05:53:33;15.60;99.90
13203;DHT22;6666;51.626;7.530;2023-05-07T05:56:02;15.30;99.90
13203;DHT22;6666;51.626;7.530;2023-05-07T05:58:31;15.10;99.90
13203;DHT22;6666;51.626;7.530;2023-05-07T06:01:04;15.20;99.90
13203;DHT22;6666;51.626;7.530;2023-05-07T06:03:34;15.20;99.90
13203;DHT22;6666;51.626;7.530;2023-05-07T06:06:07;15.20;99.90
13203;DHT22;6666;51.626;7.530;2023-05-07T06:08:35;15.60;99.90
13203;DHT22;6666;51.626;7.530;2023-05-07T06:11:04;15.70;99.90
13203;DHT22;6666;51.626;7.530;2023-05-07T06:13:35;15.70;99.90
13203;DHT22;6666;51.626;7.530;2023-05-07T06:16:04;15.40;99.90
13203;DHT22;6666;51.626;7.530;2023-05-07T06:18:34;15.30;99.90
13203;DHT22;6666;51.626;7.530;2023-05-07T06:21:03;15.20;99.90
13203;DHT22;6666;51.626;7.530;2023-05-07T06:23:34;14.90;99.90
13203;DHT22;6666;51.626;7.530;2023-05-07T06:26:04;15.00;99.90
13203;DHT22;6666;51.626;7.530;2023-05-07T06:28:37;15.00;99.90
13203;DHT22;6666;51.626;7.530;2023-05-07T06:31:13;15.10;99.90
13203;DHT22;6666;51.626;7.530;2023-05-07T06:33:46;15.10;99.90
13203;DHT22;6666;51.626;7.530;2023-05-07T06:36:15;15.10;99.90
13203;DHT22;6666;51.626;7.530;2023-05-07T06:38:46;15.20;99.90
13203;DHT22;6666;51.626;7.530;2023-05-07T06:41:14;15.00;99.90
13203;DHT22;6666;51.626;7.530;2023-05-07T06:43:43;15.00;99.90
13203;DHT22;6666;51.626;7.530;2023-05-07T06:46:24;15.10;99.90
13203;DHT22;6666;51.626;7.530;2023-05-07T06:48:53;15.20;99.90
13203;DHT22;6666;51.626;7.530;2023-05-07T06:51:21;15.40;99.90
13203;DHT22;6666;51.626;7.530;2023-05-07T06:53:51;15.40;99.90
13203;DHT22;6666;51.626;7.530;2023-05-07T06:56:19;15.40;99.90
13203;DHT22;6666;51.626;7.530;2023-05-07T06:58:48;15.40;99.90
13203;DHT22;6666;51.626;7.530;2023-05-07T07:01:16;15.40;99.90
13203;DHT22;6666;51.626;7.530;2023-05-07T07:03:45;15.60;99.90
13203;DHT22;6666;51.626;7.530;2023-05-07T07:06:13;15.60;99.90
13203;DHT22;6666;51.626;7.530;2023-05-07T07:08:42;15.60;99.90
13203;DHT22;6666;51.626;7.530;2023-05-07T07:11:15;15.50;99.90
13203;DHT22;6666;51.626;7.530;2023-05-07T07:13:43;15.60;99.90
13203;DHT22;6666;51.626;7.530;2023-05-07T07:16:12;15.80;99.90
13203;DHT22;6666;51.626;7.530;2023-05-07T07:18:40;16.00;99.90
13203;DHT22;6666;51.626;7.530;2023-05-07T07:21:08;16.00;99.90
13203;DHT22;6666;51.626;7.530;2023-05-07T07:23:36;16.00;99.90
13203;DHT22;6666;51.626;7.530;2023-05-07T07:26:04;16.20;99.90
13203;DHT22;6666;51.626;7.530;2023-05-07T07:28:42;16.00;99.90
13203;DHT22;6666;51.626;7.530;2023-05-07T07:31:13;16.10;99.90
13203;DHT22;6666;51.626;7.530;2023-05-07T07:33:42;16.20;99.90
13203;DHT22;6666;51.626;7.530;2023-05-07T07:36:10;16.10;99.90
13203;DHT22;6666;51.626;7.530;2023-05-07T07:38:38;16.30;99.90
13203;DHT22;6666;51.626;7.530;2023-05-07T07:41:08;16.30;99.90
13203;DHT22;6666;51.626;7.530;2023-05-07T07:43:38;16.60;99.90
13203;DHT22;6666;51.626;7.530;2023-05-07T07:46:06;16.30;99.90
13203;DHT22;6666;51.626;7.530;2023-05-07T07:48:34;16.30;99.90
13203;DHT22;6666;51.626;7.530;2023-05-07T07:51:03;16.30;99.90
13203;DHT22;6666;51.626;7.530;2023-05-07T07:53:32;16.30;99.90
13203;DHT22;6666;51.626;7.530;2023-05-07T07:56:00;16.20;99.90
13203;DHT22;6666;51.626;7.530;2023-05-07T07:58:33;16.30;99.90
13203;DHT22;6666;51.626;7.530;2023-05-07T08:01:04;16.30;99.90
13203;DHT22;6666;51.626;7.530;2023-05-07T08:03:32;16.40;99.90
13203;DHT22;6666;51.626;7.530;2023-05-07T08:06:01;16.40;99.90
13203;DHT22;6666;51.626;7.530;2023-05-07T08:08:31;16.60;99.90
13203;DHT22;6666;51.626;7.530;2023-05-07T08:11:00;16.70;99.90
13203;DHT22;6666;51.626;7.530;2023-05-07T08:13:31;16.70;99.90
13203;DHT22;6666;51.626;7.530;2023-05-07T08:16:00;16.70;99.90
13203;DHT22;6666;51.626;7.530;2023-05-07T08:18:29;16.90;99.90
13203;DHT22;6666;51.626;7.530;2023-05-07T08:21:01;16.90;99.90
13203;DHT22;6666;51.626;7.530;2023-05-07T08:23:30;16.70;99.90
13203;DHT22;6666;51.626;7.530;2023-05-07T08:25:59;16.90;99.90
13203;DHT22;6666;51.626;7.530;2023-05-07T08:28:28;17.40;99.90
13203;DHT22;6666;51.626;7.530;2023-05-07T08:30:56;17.40;99.90
13203;DHT22;6666;51.626;7.530;2023-05-07T08:33:32;17.20;99.90
13203;DHT22;6666;51.626;7.530;2023-05-07T08:36:00;17.30;99.90
13203;DHT22;6666;51.626;7.530;2023-05-07T08:38:28;17.30;99.90
13203;DHT22;6666;51.626;7.530;2023-05-07T08:40:57;17.40;99.90
13203;DHT22;6666;51.626;7.530;2023-05-07T08:43:27;17.00;99.90
13203;DHT22;6666;51.626;7.530;2023-05-07T08:45:55;17.00;99.90
13203;DHT22;6666;51.626;7.530;2023-05-07T08:48:29;17.00;99.90
13203;DHT22;6666;51.626;7.530;2023-05-07T08:51:08;17.20;99.90
13203;DHT22;6666;51.626;7.530;2023-05-07T08:53:36;17.20;99.90
13203;DHT22;6666;51.626;7.530;2023-05-07T08:56:11;17.30;99.90
13203;DHT22;6666;51.626;7.530;2023-05-07T08:58:40;17.40;99.90
13203;DHT22;6666;51.626;7.530;2023-05-07T09:01:10;17.20;99.90
13203;DHT22;6666;51.626;7.530;2023-05-07T09:03:44;17.50;99.90
13203;DHT22;6666;51.626;7.530;2023-05-07T09:06:15;17.50;99.90
13203;DHT22;6666;51.626;7.530;2023-05-07T09:08:49;17.50;99.90
13203;DHT22;6666;51.626;7.530;2023-05-07T09:11:22;17.70;99.90
13203;DHT22;6666;51.626;7.530;2023-05-07T09:13:53;18.00;99.90
13203;DHT22;6666;51.626;7.530;2023-05-07T09:16:24;17.70;99.90
13203;DHT22;6666;51.626;7.530;2023-05-07T09:18:54;17.80;99.90
13203;DHT22;6666;51.626;7.530;2023-05-07T09:21:24;17.70;99.90
13203;DHT22;6666;51.626;7.530;2023-05-07T09:23:55;17.80;99.90
13203;DHT22;6666;51.626;7.530;2023-05-07T09:26:31;17.70;99.90
13203;DHT22;6666;51.626;7.530;2023-05-07T09:29:02;17.90;99.90
13203;DHT22;6666;51.626;7.530;2023-05-07T09:31:30;18.10;99.90
13203;DHT22;6666;51.626;7.530;2023-05-07T09:33:59;17.80;99.90
13203;DHT22;6666;51.626;7.530;2023-05-07T09:36:31;17.90;99.90
13203;DHT22;6666;51.626;7.530;2023-05-07T09:39:00;18.30;99.90
13203;DHT22;6666;51.626;7.530;2023-05-07T09:41:30;18.40;99.90
13203;DHT22;6666;51.626;7.530;2023-05-07T09:44:14;18.70;99.90
13203;DHT22;6666;51.626;7.530;2023-05-07T09:46:53;18.70;99.90
13203;DHT22;6666;51.626;7.530;2023-05-07T09:49:29;18.70;99.90
13203;DHT22;6666;51.626;7.530;2023-05-07T09:52:05;18.80;99.90
13203;DHT22;6666;51.626;7.530;2023-05-07T09:54:38;18.70;99.90
13203;DHT22;6666;51.626;7.530;2023-05-07T09:57:07;18.60;99.90
13203;DHT22;6666;51.626;7.530;2023-05-07T09:59:38;18.60;99.90
13203;DHT22;6666;51.626;7.530;2023-05-07T10:02:14;18.60;99.90
13203;DHT22;6666;51.626;7.530;2023-05-07T10:04:48;18.60;99.90
13203;DHT22;6666;51.626;7.530;2023-05-07T10:07:23;18.80;99.90
13203;DHT22;6666;51.626;7.530;2023-05-07T10:09:55;18.90;99.90
13203;DHT22;6666;51.626;7.530;2023-05-07T10:12:31;18.90;99.90
13203;DHT22;6666;51.626;7.530;2023-05-07T10:15:10;19.10;99.90
13203;DHT22;6666;51.626;7.530;2023-05-07T10:17:42;19.60;99.90
13203;DHT22;6666;51.626;7.530;2023-05-07T10:20:12;19.30;99.90
13203;DHT22;6666;51.626;7.530;2023-05-07T10:22:47;19.30;99.90
13203;DHT22;6666;51.626;7.530;2023-05-07T10:25:30;19.10;99.90
13203;DHT22;6666;51.626;7.530;2023-05-07T10:28:06;19.30;99.90
13203;DHT22;6666;51.626;7.530;2023-05-07T10:30:46;19.40;99.90
13203;DHT22;6666;51.626;7.530;2023-05-07T10:33:21;19.40;99.90
13203;DHT22;6666;51.626;7.530;2023-05-07T10:35:50;19.60;99.90
13203;DHT22;6666;51.626;7.530;2023-05-07T10:38:20;19.80;99.90
13203;DHT22;6666;51.626;7.530;2023-05-07T10:40:50;19.90;99.90
13203;DHT22;6666;51.626;7.530;2023-05-07T10:43:19;19.90;99.90
13203;DHT22;6666;51.626;7.530;2023-05-07T10:46:16;19.90;99.90
13203;DHT22;6666;51.626;7.530;2023-05-07T10:49:09;19.80;99.90
13203;DHT22;6666;51.626;7.530;2023-05-07T10:52:14;19.50;99.90
13203;DHT22;6666;51.626;7.530;2023-05-07T10:55:23;19.60;99.90
13203;DHT22;6666;51.626;7.530;2023-05-07T10:58:25;19.80;99.90
13203;DHT22;6666;51.626;7.530;2023-05-07T11:01:11;19.70;99.90
13203;DHT22;6666;51.626;7.530;2023-05-07T11:04:15;19.70;99.90
13203;DHT22;6666;51.626;7.530;2023-05-07T11:07:27;19.80;99.90
13203;DHT22;6666;51.626;7.530;2023-05-07T11:10:02;19.80;99.90
13203;DHT22;6666;51.626;7.530;2023-05-07T11:12:55;19.70;99.90
13203;DHT22;6666;51.626;7.530;2023-05-07T11:15:40;19.90;99.90
13203;DHT22;6666;51.626;7.530;2023-05-07T11:18:20;19.80;99.90
13203;DHT22;6666;51.626;7.530;2023-05-07T11:20:53;19.90;99.90
13203;DHT22;6666;51.626;7.530;2023-05-07T11:23:59;20.00;99.90
13203;DHT22;6666;51.626;7.530;2023-05-07T11:26:46;20.20;99.90
13203;DHT22;6666;51.626;7.530;2023-05-07T11:29:17;19.90;99.90
13203;DHT22;6666;51.626;7.530;2023-05-07T11:31:54;19.80;99.90
13203;DHT22;6666;51.626;7.530;2023-05-07T11:34:26;19.90;99.90
13203;DHT22;6666;51.626;7.530;2023-05-07T11:36:58;20.00;99.90
13203;DHT22;6666;51.626;7.530;2023-05-07T11:39:42;19.90;99.90
13203;DHT22;6666;51.626;7.530;2023-05-07T11:42:25;19.90;99.90
13203;DHT22;6666;51.626;7.530;2023-05-07T11:44:55;19.80;99.90
13203;DHT22;6666;51.626;7.530;2023-05-07T11:47:23;19.70;99.90
13203;DHT22;6666;51.626;7.530;2023-05-07T11:49:53;19.90;99.90
13203;DHT22;6666;51.626;7.530;2023-05-07T11:52:23;20.40;99.90
13203;DHT22;6666;51.626;7.530;2023-05-07T11:54:52;20.20;99.90
13203;DHT22;6666;51.626;7.530;2023-05-07T11:57:20;20.40;99.90
13203;DHT22;6666;51.626;7.530;2023-05-07T11:59:52;20.50;99.90
13203;DHT22;6666;51.626;7.530;2023-05-07T12:02:22;20.70;99.90
13203;DHT22;6666;51.626;7.530;2023-05-07T12:04:52;20.60;99.90
13203;DHT22;6666;51.626;7.530;2023-05-07T12:07:20;20.50;99.90
13203;DHT22;6666;51.626;7.530;2023-05-07T12:09:48;20.40;99.90
13203;DHT22;6666;51.626;7.530;2023-05-07T12:12:17;20.50;99.90
13203;DHT22;6666;51.626;7.530;2023-05-07T12:14:46;20.70;99.90
13203;DHT22;6666;51.626;7.530;2023-05-07T12:17:14;20.80;99.90
13203;DHT22;6666;51.626;7.530;2023-05-07T12:19:46;21.00;99.90
13203;DHT22;6666;51.626;7.530;2023-05-07T12:22:14;21.30;99.90
13203;DHT22;6666;51.626;7.530;2023-05-07T12:24:46;21.20;99.90
13203;DHT22;6666;51.626;7.530;2023-05-07T12:27:15;20.80;99.90
13203;DHT22;6666;51.626;7.530;2023-05-07T12:29:48;21.00;99.90
13203;DHT22;6666;51.626;7.530;2023-05-07T12:32:17;21.20;99.90
13203;DHT22;6666;51.626;7.530;2023-05-07T12:34:49;21.10;99.90
13203;DHT22;6666;51.626;7.530;2023-05-07T12:37:23;20.90;99.90
13203;DHT22;6666;51.626;7.530;2023-05-07T12:40:04;20.90;99.90
13203;DHT22;6666;51.626;7.530;2023-05-07T12:42:36;21.00;99.90
13203;DHT22;6666;51.626;7.530;2023-05-07T12:45:08;20.80;99.90
13203;DHT22;6666;51.626;7.530;2023-05-07T12:47:37;20.70;99.90
13203;DHT22;6666;51.626;7.530;2023-05-07T12:50:07;20.90;99.90
13203;DHT22;6666;51.626;7.530;2023-05-07T12:52:35;21.00;99.90
13203;DHT22;6666;51.626;7.530;2023-05-07T12:55:05;21.00;99.90
13203;DHT22;6666;51.626;7.530;2023-05-07T12:57:38;21.00;99.90
13203;DHT22;6666;51.626;7.530;2023-05-07T13:00:07;20.90;99.90
13203;DHT22;6666;51.626;7.530;2023-05-07T13:02:38;20.90;99.90
13203;DHT22;6666;51.626;7.530;2023-05-07T13:05:08;20.80;99.90
13203;DHT22;6666;51.626;7.530;2023-05-07T13:07:37;20.80;99.90
13203;DHT22;6666;51.626;7.530;2023-05-07T13:10:06;20.80;99.90
13203;DHT22;6666;51.626;7.530;2023-05-07T13:12:34;20.70;99.90
13203;DHT22;6666;51.626;7.530;2023-05-07T13:15:03;20.80;99.90
13203;DHT22;6666;51.626;7.530;2023-05-07T13:17:31;20.70;99.90
13203;DHT22;6666;51.626;7.530;2023-05-07T13:20:00;20.70;99.90
13203;DHT22;6666;51.626;7.530;2023-05-07T13:22:30;20.70;99.90
13203;DHT22;6666;51.626;7.530;2023-05-07T13:24:58;20.50;99.90
13203;DHT22;6666;51.626;7.530;2023-05-07T13:27:26;20.40;99.90
13203;DHT22;6666;51.626;7.530;2023-05-07T13:29:54;20.40;99.90
13203;DHT22;6666;51.626;7.530;2023-05-07T13:32:22;20.40;99.90
13203;DHT22;6666;51.626;7.530;2023-05-07T13:34:50;20.40;99.90
13203;DHT22;6666;51.626;7.530;2023-05-07T13:37:18;20.40;99.90
13203;DHT22;6666;51.626;7.530;2023-05-07T13:39:48;20.30;99.90
13203;DHT22;6666;51.626;7.530;2023-05-07T13:42:16;20.20;99.90
13203;DHT22;6666;51.626;7.530;2023-05-07T13:44:45;20.20;99.90
13203;DHT22;6666;51.626;7.530;2023-05-07T13:47:13;20.20;99.90
13203;DHT22;6666;51.626;7.530;2023-05-07T13:49:41;20.20;99.90
13203;DHT22;6666;51.626;7.530;2023-05-07T13:52:09;20.20;99.90
13203;DHT22;6666;51.626;7.530;2023-05-07T13:54:38;20.20;99.90
13203;DHT22;6666;51.626;7.530;2023-05-07T13:57:07;20.20;99.90
13203;DHT22;6666;51.626;7.530;2023-05-07T13:59:36;20.30;99.90
13203;DHT22;6666;51.626;7.530;2023-05-07T14:02:04;20.50;99.90
13203;DHT22;6666;51.626;7.530;2023-05-07T14:04:32;20.40;99.90
13203;DHT22;6666;51.626;7.530;2023-05-07T14:07:00;20.40;99.90
13203;DHT22;6666;51.626;7.530;2023-05-07T14:09:29;20.40;99.90
13203;DHT22;6666;51.626;7.530;2023-05-07T14:11:58;20.40;99.90
13203;DHT22;6666;51.626;7.530;2023-05-07T14:14:29;20.60;99.90
13203;DHT22;6666;51.626;7.530;2023-05-07T14:16:57;20.60;99.90
13203;DHT22;6666;51.626;7.530;2023-05-07T14:19:25;20.80;99.90
13203;DHT22;6666;51.626;7.530;2023-05-07T14:21:53;20.60;99.90
13203;DHT22;6666;51.626;7.530;2023-05-07T14:24:25;20.60;99.90
13203;DHT22;6666;51.626;7.530;2023-05-07T14:27:03;20.70;99.90
13203;DHT22;6666;51.626;7.530;2023-05-07T14:29:33;20.70;99.90
13203;DHT22;6666;51.626;7.530;2023-05-07T14:32:03;20.90;99.90
13203;DHT22;6666;51.626;7.530;2023-05-07T14:34:31;20.80;99.90
13203;DHT22;6666;51.626;7.530;2023-05-07T14:36:59;20.80;99.90
13203;DHT22;6666;51.626;7.530;2023-05-07T14:39:28;20.60;99.90
13203;DHT22;6666;51.626;7.530;2023-05-07T14:41:57;20.60;99.90
13203;DHT22;6666;51.626;7.530;2023-05-07T14:44:25;20.70;99.90
13203;DHT22;6666;51.626;7.530;2023-05-07T14:46:54;20.80;99.90
13203;DHT22;6666;51.626;7.530;2023-05-07T14:49:23;20.60;99.90
13203;DHT22;6666;51.626;7.530;2023-05-07T14:51:51;20.60;99.90
13203;DHT22;6666;51.626;7.530;2023-05-07T14:54:19;20.70;99.90
13203;DHT22;6666;51.626;7.530;2023-05-07T14:56:47;20.60;99.90
13203;DHT22;6666;51.626;7.530;2023-05-07T14:59:15;20.60;99.90
13203;DHT22;6666;51.626;7.530;2023-05-07T15:01:46;20.70;99.90
13203;DHT22;6666;51.626;7.530;2023-05-07T15:04:15;20.70;99.90
13203;DHT22;6666;51.626;7.530;2023-05-07T15:06:43;20.90;99.90
13203;DHT22;6666;51.626;7.530;2023-05-07T15:09:12;20.90;99.90
13203;DHT22;6666;51.626;7.530;2023-05-07T15:11:41;20.80;99.90
13203;DHT22;6666;51.626;7.530;2023-05-07T15:14:09;20.80;99.90
13203;DHT22;6666;51.626;7.530;2023-05-07T15:16:37;20.70;99.90
13203;DHT22;6666;51.626;7.530;2023-05-07T15:19:05;20.80;99.90
13203;DHT22;6666;51.626;7.530;2023-05-07T15:21:34;20.60;99.90
13203;DHT22;6666;51.626;7.530;2023-05-07T15:24:03;20.50;99.90
13203;DHT22;6666;51.626;7.530;2023-05-07T15:26:31;20.40;99.90
13203;DHT22;6666;51.626;7.530;2023-05-07T15:28:59;20.40;99.90
13203;DHT22;6666;51.626;7.530;2023-05-07T15:31:29;20.30;99.90
13203;DHT22;6666;51.626;7.530;2023-05-07T15:33:59;20.30;99.90
13203;DHT22;6666;51.626;7.530;2023-05-07T15:36:27;20.30;99.90
13203;DHT22;6666;51.626;7.530;2023-05-07T15:38:58;20.40;99.90
13203;DHT22;6666;51.626;7.530;2023-05-07T15:41:26;20.40;99.90
13203;DHT22;6666;51.626;7.530;2023-05-07T15:43:54;20.40;99.90
13203;DHT22;6666;51.626;7.530;2023-05-07T15:46:24;20.40;99.90
13203;DHT22;6666;51.626;7.530;2023-05-07T15:48:53;20.30;99.90
13203;DHT22;6666;51.626;7.530;2023-05-07T15:51:22;20.30;99.90
13203;DHT22;6666;51.626;7.530;2023-05-07T15:53:50;20.20;99.90
13203;DHT22;6666;51.626;7.530;2023-05-07T15:56:20;20.20;99.90
13203;DHT22;6666;51.626;7.530;2023-05-07T15:58:49;20.20;99.90
13203;DHT22;6666;51.626;7.530;2023-05-07T16:01:17;20.20;99.90
13203;DHT22;6666;51.626;7.530;2023-05-07T16:03:45;20.10;99.90
13203;DHT22;6666;51.626;7.530;2023-05-07T16:06:13;20.00;99.90
13203;DHT22;6666;51.626;7.530;2023-05-07T16:08:41;20.00;99.90